sensor_id;sensor_type;location;lat;lon;timestamp;pressure;altitude;pressure_sealevel;temperature;humidity
58018;BME280;43810;50.860;19.226;2023-02-08T00:01:16;101156.03;;;-1.88;81.78
58018;BME280;43810;50.860;19.226;2023-02-08T00:03:42;101163.78;;;-1.95;82.06
58018;BME280;43810;50.860;19.226;2023-02-08T00:06:09;101151.75;;;-1.96;82.33
58018;BME280;43810;50.860;19.226;2023-02-08T00:08:35;101157.13;;;-1.97;82.09
58018;BME280;43810;50.860;19.226;2023-02-08T00:11:03;101164.78;;;-1.96;82.14
58018;BME280;43810;50.860;19.226;2023-02-08T00:13:30;101163.78;;;-1.95;82.47
58018;BME280;43810;50.860;19.226;2023-02-08T00:15:57;101174.56;;;-1.98;82.48
58018;BME280;43810;50.860;19.226;2023-02-08T00:18:23;101163.78;;;-1.95;82.17
58018;BME280;43810;50.860;19.226;2023-02-08T00:20:50;101160.00;;;-1.92;82.29
58018;BME280;43810;50.860;19.226;2023-02-08T00:23:17;101156.59;;;-1.93;82.28
58018;BME280;43810;50.860;19.226;2023-02-08T00:25:43;101156.03;;;-1.88;82.01
58018;BME280;43810;50.860;19.226;2023-02-08T00:28:12;101158.13;;;-1.98;82.11
58018;BME280;43810;50.860;19.226;2023-02-08T00:30:39;101163.34;;;-1.98;82.56
58018;BME280;43810;50.860;19.226;2023-02-08T00:33:05;101166.56;;;-1.96;82.47
58018;BME280;43810;50.860;19.226;2023-02-08T00:35:32;101149.78;;;-1.94;82.42
58018;BME280;43810;50.860;19.226;2023-02-08T00:37:57;101154.97;;;-1.94;82.29
58018;BME280;43810;50.860;19.226;2023-02-08T00:40:24;101149.50;;;-1.99;82.24
58018;BME280;43810;50.860;19.226;2023-02-08T00:42:50;101147.63;;;-2.05;82.54
58018;BME280;43810;50.860;19.226;2023-02-08T00:45:16;101151.16;;;-2.12;82.72
58018;BME280;43810;50.860;19.226;2023-02-08T00:47:42;101152.16;;;-2.13;82.96
58018;BME280;43810;50.860;19.226;2023-02-08T00:50:09;101143.06;;;-2.17;83.34
58018;BME280;43810;50.860;19.226;2023-02-08T00:52:35;101147.94;;;-2.14;83.11
58018;BME280;43810;50.860;19.226;2023-02-08T00:55:01;101145.69;;;-2.17;83.40
58018;BME280;43810;50.860;19.226;2023-02-08T00:57:26;101148.66;;;-2.20;83.49
58018;BME280;43810;50.860;19.226;2023-02-08T00:59:52;101149.63;;;-2.21;83.83
58018;BME280;43810;50.860;19.226;2023-02-08T01:02:18;101152.88;;;-2.19;83.84
58018;BME280;43810;50.860;19.226;2023-02-08T01:04:44;101142.91;;;-2.16;83.56
58018;BME280;43810;50.860;19.226;2023-02-08T01:07:09;101148.00;;;-2.08;83.06
58018;BME280;43810;50.860;19.226;2023-02-08T01:09:35;101147.19;;;-2.08;82.78
58018;BME280;43810;50.860;19.226;2023-02-08T01:12:02;101146.19;;;-2.07;82.94
58018;BME280;43810;50.860;19.226;2023-02-08T01:14:28;101151.16;;;-2.12;83.07
58018;BME280;43810;50.860;19.226;2023-02-08T01:16:54;101135.91;;;-2.15;83.39
58018;BME280;43810;50.860;19.226;2023-02-08T01:19:20;101134.28;;;-2.16;83.53
58018;BME280;43810;50.860;19.226;2023-02-08T01:21:46;101133.34;;;-2.09;83.28
58018;BME280;43810;50.860;19.226;2023-02-08T01:24:13;101140.75;;;-2.12;83.37
58018;BME280;43810;50.860;19.226;2023-02-08T01:26:39;101145.50;;;-2.16;83.87
58018;BME280;43810;50.860;19.226;2023-02-08T01:29:05;101140.34;;;-2.09;83.96
58018;BME280;43810;50.860;19.226;2023-02-08T01:31:34;101151.50;;;-2.01;83.28
58018;BME280;43810;50.860;19.226;2023-02-08T01:34:02;101155.50;;;-1.98;83.22
58018;BME280;43810;50.860;19.226;2023-02-08T01:36:29;101147.69;;;-1.98;82.77
58018;BME280;43810;50.860;19.226;2023-02-08T01:38:55;101150.56;;;-1.93;82.85
58018;BME280;43810;50.860;19.226;2023-02-08T01:41:29;101156.78;;;-1.94;82.65
58018;BME280;43810;50.860;19.226;2023-02-08T01:46:33;101149.78;;;-1.94;82.13
58018;BME280;43810;50.860;19.226;2023-02-08T01:49:19;101147.88;;;-2.00;82.41
58018;BME280;43810;50.860;19.226;2023-02-08T01:51:49;101147.19;;;-2.08;83.08
58018;BME280;43810;50.860;19.226;2023-02-08T01:54:18;101151.69;;;-2.17;83.27
58018;BME280;43810;50.860;19.226;2023-02-08T01:56:46;101153.94;;;-2.14;83.55
58018;BME280;43810;50.860;19.226;2023-02-08T01:59:22;101151.16;;;-2.12;83.86
58018;BME280;43810;50.860;19.226;2023-02-08T02:01:53;101157.25;;;-2.05;83.46
58018;BME280;43810;50.860;19.226;2023-02-08T02:04:21;101150.69;;;-2.01;82.96
58018;BME280;43810;50.860;19.226;2023-02-08T02:06:50;101155.81;;;-2.08;83.58
58018;BME280;43810;50.860;19.226;2023-02-08T02:10:03;101139.28;;;-2.00;82.94
58018;BME280;43810;50.860;19.226;2023-02-08T02:12:26;101137.91;;;-1.96;82.60
58018;BME280;43810;50.860;19.226;2023-02-08T02:14:52;101147.53;;;-1.97;82.69
58018;BME280;43810;50.860;19.226;2023-02-08T02:17:18;101135.66;;;-1.99;82.94
58018;BME280;43810;50.860;19.226;2023-02-08T02:20:16;101133.69;;;-1.97;82.91
58018;BME280;43810;50.860;19.226;2023-02-08T02:37:50;101123.28;;;-1.97;83.03
58018;BME280;43810;50.860;19.226;2023-02-08T02:44:06;101138.84;;;-2.18;83.46
58018;BME280;43810;50.860;19.226;2023-02-08T02:46:42;101135.72;;;-2.29;83.82
58018;BME280;43810;50.860;19.226;2023-02-08T02:49:18;101149.50;;;-2.35;84.41
58018;BME280;43810;50.860;19.226;2023-02-08T02:51:56;101157.81;;;-2.24;84.59
58018;BME280;43810;50.860;19.226;2023-02-08T02:54:28;101164.91;;;-2.18;84.10
58018;BME280;43810;50.860;19.226;2023-02-08T02:57:00;101166.97;;;-2.29;84.35
58018;BME280;43810;50.860;19.226;2023-02-08T02:59:27;101172.34;;;-2.15;84.33
58018;BME280;43810;50.860;19.226;2023-02-08T03:01:56;101183.81;;;-1.95;83.47
58018;BME280;43810;50.860;19.226;2023-02-08T03:20:29;101190.59;;;-2.15;84.28
58018;BME280;43810;50.860;19.226;2023-02-08T03:33:39;101187.50;;;-1.89;83.01
58018;BME280;43810;50.860;19.226;2023-02-08T03:36:16;101195.56;;;-1.99;82.94
58018;BME280;43810;50.860;19.226;2023-02-08T03:38:46;101200.03;;;-2.14;83.41
58018;BME280;43810;50.860;19.226;2023-02-08T03:41:18;101197.59;;;-2.16;83.59
58018;BME280;43810;50.860;19.226;2023-02-08T03:43:53;101189.84;;;-2.09;83.45
58018;BME280;43810;50.860;19.226;2023-02-08T03:46:24;101194.06;;;-2.08;83.26
58018;BME280;43810;50.860;19.226;2023-02-08T03:48:55;101196.69;;;-2.08;83.64
58018;BME280;43810;50.860;19.226;2023-02-08T03:51:25;101185.72;;;-2.04;83.18
58018;BME280;43810;50.860;19.226;2023-02-08T03:53:54;101185.78;;;-1.97;83.06
58018;BME280;43810;50.860;19.226;2023-02-08T03:56:33;101182.88;;;-1.87;82.66
58018;BME280;43810;50.860;19.226;2023-02-08T03:59:05;101192.72;;;-1.89;82.62
58018;BME280;43810;50.860;19.226;2023-02-08T04:01:37;101193.44;;;-1.96;82.40
58018;BME280;43810;50.860;19.226;2023-02-08T04:04:05;101193.88;;;-1.92;82.72
58018;BME280;43810;50.860;19.226;2023-02-08T04:06:31;101197.94;;;-1.89;82.77
58018;BME280;43810;50.860;19.226;2023-02-08T04:08:57;101200.31;;;-1.88;82.77
58018;BME280;43810;50.860;19.226;2023-02-08T04:11:23;101200.31;;;-1.88;82.88
58018;BME280;43810;50.860;19.226;2023-02-08T04:13:49;101203.56;;;-1.86;82.63
58018;BME280;43810;50.860;19.226;2023-02-08T04:16:15;101198.06;;;-1.76;82.59
58018;BME280;43810;50.860;19.226;2023-02-08T04:18:40;101200.94;;;-1.71;82.36
58018;BME280;43810;50.860;19.226;2023-02-08T04:21:06;101215.31;;;-1.75;82.30
58018;BME280;43810;50.860;19.226;2023-02-08T04:23:32;101202.09;;;-1.74;82.30
58018;BME280;43810;50.860;19.226;2023-02-08T04:25:58;101206.13;;;-1.71;81.95
58018;BME280;43810;50.860;19.226;2023-02-08T04:28:24;101224.75;;;-1.74;82.06
58018;BME280;43810;50.860;19.226;2023-02-08T04:30:50;101215.56;;;-1.70;82.02
58018;BME280;43810;50.860;19.226;2023-02-08T04:33:15;101215.13;;;-1.74;81.65
58018;BME280;43810;50.860;19.226;2023-02-08T04:35:41;101222.31;;;-1.76;81.95
58018;BME280;43810;50.860;19.226;2023-02-08T04:38:07;101218.34;;;-1.72;82.17
58018;BME280;43810;50.860;19.226;2023-02-08T04:40:34;101218.53;;;-1.73;81.78
58018;BME280;43810;50.860;19.226;2023-02-08T04:43:00;101204.63;;;-1.66;81.60
58018;BME280;43810;50.860;19.226;2023-02-08T04:45:27;101213.78;;;-1.70;81.42
58018;BME280;43810;50.860;19.226;2023-02-08T04:47:54;101217.56;;;-1.72;81.57
58018;BME280;43810;50.860;19.226;2023-02-08T04:50:20;101218.53;;;-1.73;81.83
58018;BME280;43810;50.860;19.226;2023-02-08T04:52:46;101221.78;;;-1.71;81.54
58018;BME280;43810;50.860;19.226;2023-02-08T04:55:12;101216.44;;;-1.63;81.52
58018;BME280;43810;50.860;19.226;2023-02-08T04:57:38;101211.41;;;-1.65;81.23
58018;BME280;43810;50.860;19.226;2023-02-08T05:00:04;101221.25;;;-1.67;81.47
58018;BME280;43810;50.860;19.226;2023-02-08T05:02:30;101224.84;;;-1.82;81.70
58018;BME280;43810;50.860;19.226;2023-02-08T05:04:56;101215.94;;;-1.73;81.84
58018;BME280;43810;50.860;19.226;2023-02-08T05:07:22;101225.81;;;-1.69;81.56
58018;BME280;43810;50.860;19.226;2023-02-08T05:09:48;101218.88;;;-1.62;81.10
58018;BME280;43810;50.860;19.226;2023-02-08T05:12:14;101214.75;;;-1.71;81.19
58018;BME280;43810;50.860;19.226;2023-02-08T05:14:40;101209.56;;;-1.71;81.19
58018;BME280;43810;50.860;19.226;2023-02-08T05:17:05;101222.22;;;-1.68;81.23
58018;BME280;43810;50.860;19.226;2023-02-08T05:19:31;101210.06;;;-1.61;81.02
58018;BME280;43810;50.860;19.226;2023-02-08T05:21:57;101214.75;;;-1.56;80.74
58018;BME280;43810;50.860;19.226;2023-02-08T05:24:23;101224.19;;;-1.55;81.03
58018;BME280;43810;50.860;19.226;2023-02-08T05:26:48;101228.31;;;-1.61;81.10
58018;BME280;43810;50.860;19.226;2023-02-08T05:29:15;101221.72;;;-1.78;81.18
58018;BME280;43810;50.860;19.226;2023-02-08T05:31:40;101223.41;;;-1.70;81.50
58018;BME280;43810;50.860;19.226;2023-02-08T05:34:07;101224.44;;;-1.65;81.25
58018;BME280;43810;50.860;19.226;2023-02-08T05:36:32;101228.72;;;-1.78;81.76
58018;BME280;43810;50.860;19.226;2023-02-08T05:38:58;101231.31;;;-1.78;81.85
58018;BME280;43810;50.860;19.226;2023-02-08T05:41:24;101231.84;;;-1.68;81.79
58018;BME280;43810;50.860;19.226;2023-02-08T05:43:50;101225.47;;;-1.66;81.51
58018;BME280;43810;50.860;19.226;2023-02-08T05:46:16;101227.81;;;-1.85;81.71
58018;BME280;43810;50.860;19.226;2023-02-08T05:48:42;101232.22;;;-1.86;81.95
58018;BME280;43810;50.860;19.226;2023-02-08T05:51:08;101229.66;;;-2.01;82.74
58018;BME280;43810;50.860;19.226;2023-02-08T05:53:34;101233.06;;;-2.00;82.93
58018;BME280;43810;50.860;19.226;2023-02-08T05:55:59;101237.88;;;-1.97;83.00
58018;BME280;43810;50.860;19.226;2023-02-08T05:58:25;101235.00;;;-1.87;82.76
58018;BME280;43810;50.860;19.226;2023-02-08T06:00:51;101246.97;;;-1.93;82.83
58018;BME280;43810;50.860;19.226;2023-02-08T06:03:18;101247.78;;;-1.78;82.40
58018;BME280;43810;50.860;19.226;2023-02-08T06:05:44;101247.59;;;-1.91;83.02
58018;BME280;43810;50.860;19.226;2023-02-08T06:08:10;101244.00;;;-1.90;82.95
58018;BME280;43810;50.860;19.226;2023-02-08T06:10:36;101252.28;;;-2.01;83.48
58018;BME280;43810;50.860;19.226;2023-02-08T06:13:03;101261.50;;;-1.99;83.42
58018;BME280;43810;50.860;19.226;2023-02-08T06:15:28;101257.50;;;-2.01;83.29
58018;BME280;43810;50.860;19.226;2023-02-08T06:17:55;101260.09;;;-2.01;83.59
58018;BME280;43810;50.860;19.226;2023-02-08T06:20:20;101266.81;;;-1.92;83.77
58018;BME280;43810;50.860;19.226;2023-02-08T06:22:46;101267.00;;;-1.94;83.56
58018;BME280;43810;50.860;19.226;2023-02-08T06:25:12;101270.59;;;-1.95;83.47
58018;BME280;43810;50.860;19.226;2023-02-08T06:27:38;101268.97;;;-1.81;83.25
58018;BME280;43810;50.860;19.226;2023-02-08T06:30:04;101269.03;;;-1.74;82.97
58018;BME280;43810;50.860;19.226;2023-02-08T06:32:30;101270.94;;;-1.83;82.92
58018;BME280;43810;50.860;19.226;2023-02-08T06:34:56;101264.94;;;-1.83;83.30
58018;BME280;43810;50.860;19.226;2023-02-08T06:37:23;101280.50;;;-1.90;83.93
58018;BME280;43810;50.860;19.226;2023-02-08T06:39:48;101280.38;;;-1.82;83.87
58018;BME280;43810;50.860;19.226;2023-02-08T06:42:14;101272.09;;;-1.85;83.53
58018;BME280;43810;50.860;19.226;2023-02-08T06:44:40;101263.94;;;-1.82;83.77
58018;BME280;43810;50.860;19.226;2023-02-08T06:47:06;101271.94;;;-1.84;83.60
58018;BME280;43810;50.860;19.226;2023-02-08T06:49:32;101291.91;;;-1.91;83.66
58018;BME280;43810;50.860;19.226;2023-02-08T06:51:58;101284.97;;;-1.84;83.85
58018;BME280;43810;50.860;19.226;2023-02-08T06:54:23;101280.28;;;-1.74;83.67
58018;BME280;43810;50.860;19.226;2023-02-08T06:56:49;101294.41;;;-1.68;83.41
58018;BME280;43810;50.860;19.226;2023-02-08T06:59:15;101303.72;;;-1.74;83.46
58018;BME280;43810;50.860;19.226;2023-02-08T07:01:41;101300.50;;;-1.76;83.44
58018;BME280;43810;50.860;19.226;2023-02-08T07:04:07;101298.69;;;-1.61;83.29
58018;BME280;43810;50.860;19.226;2023-02-08T07:06:33;101306.16;;;-1.58;83.04
58018;BME280;43810;50.860;19.226;2023-02-08T07:08:59;101310.63;;;-1.51;82.81
58018;BME280;43810;50.860;19.226;2023-02-08T07:11:27;101303.78;;;-1.52;82.96
58018;BME280;43810;50.860;19.226;2023-02-08T07:13:52;101304.72;;;-1.75;83.42
58018;BME280;43810;50.860;19.226;2023-02-08T07:16:20;101303.84;;;-1.67;83.79
58018;BME280;43810;50.860;19.226;2023-02-08T07:18:46;101317.41;;;-1.72;83.55
58018;BME280;43810;50.860;19.226;2023-02-08T07:21:11;101315.41;;;-1.55;83.45
58018;BME280;43810;50.860;19.226;2023-02-08T07:23:38;101311.00;;;-1.54;82.78
58018;BME280;43810;50.860;19.226;2023-02-08T07:26:07;101320.72;;;-1.63;82.92
58018;BME280;43810;50.860;19.226;2023-02-08T07:28:33;101312.00;;;-1.70;83.23
58018;BME280;43810;50.860;19.226;2023-02-08T07:31:04;101304.06;;;-1.62;83.43
58018;BME280;43810;50.860;19.226;2023-02-08T07:33:30;101308.94;;;-1.59;82.97
58018;BME280;43810;50.860;19.226;2023-02-08T07:35:56;101307.78;;;-1.57;82.92
58018;BME280;43810;50.860;19.226;2023-02-08T07:38:22;101304.59;;;-1.52;83.04
58018;BME280;43810;50.860;19.226;2023-02-08T07:40:48;101311.78;;;-1.39;82.79
58018;BME280;43810;50.860;19.226;2023-02-08T07:43:14;101307.69;;;-1.27;81.90
58018;BME280;43810;50.860;19.226;2023-02-08T07:45:40;101310.06;;;-1.32;81.98
58018;BME280;43810;50.860;19.226;2023-02-08T07:48:06;101304.84;;;-1.32;81.73
58018;BME280;43810;50.860;19.226;2023-02-08T07:50:31;101323.81;;;-1.38;82.43
58018;BME280;43810;50.860;19.226;2023-02-08T07:52:58;101320.75;;;-1.27;81.97
58018;BME280;43810;50.860;19.226;2023-02-08T07:55:24;101324.09;;;-1.33;82.16
58018;BME280;43810;50.860;19.226;2023-02-08T07:57:50;101320.50;;;-1.32;82.34
58018;BME280;43810;50.860;19.226;2023-02-08T08:00:17;101317.31;;;-1.28;81.94
58018;BME280;43810;50.860;19.226;2023-02-08T08:02:43;101316.84;;;-1.16;81.61
58018;BME280;43810;50.860;19.226;2023-02-08T08:05:10;101309.97;;;-1.03;81.06
58018;BME280;43810;50.860;19.226;2023-02-08T08:07:36;101314.28;;;-0.74;80.23
58018;BME280;43810;50.860;19.226;2023-02-08T08:10:02;101319.91;;;-0.70;79.68
58018;BME280;43810;50.860;19.226;2023-02-08T08:12:28;101326.88;;;-0.77;79.92
58018;BME280;43810;50.860;19.226;2023-02-08T08:14:54;101333.81;;;-1.06;80.94
58018;BME280;43810;50.860;19.226;2023-02-08T08:17:20;101337.81;;;-1.10;81.25
58018;BME280;43810;50.860;19.226;2023-02-08T08:19:46;101335.09;;;-1.16;81.08
58018;BME280;43810;50.860;19.226;2023-02-08T08:22:12;101345.06;;;-1.05;82.00
58018;BME280;43810;50.860;19.226;2023-02-08T08:24:37;101344.41;;;-0.93;81.34
58018;BME280;43810;50.860;19.226;2023-02-08T08:27:04;101337.25;;;-0.84;80.74
58018;BME280;43810;50.860;19.226;2023-02-08T08:29:31;101335.34;;;-0.75;80.05
58018;BME280;43810;50.860;19.226;2023-02-08T08:31:57;101335.16;;;-0.74;79.83
58018;BME280;43810;50.860;19.226;2023-02-08T08:34:23;101340.56;;;-0.75;80.31
58018;BME280;43810;50.860;19.226;2023-02-08T08:36:59;101333.28;;;-0.59;79.84
58018;BME280;43810;50.860;19.226;2023-02-08T08:39:25;101337.94;;;-0.26;79.20
58018;BME280;43810;50.860;19.226;2023-02-08T08:41:58;101353.00;;;-0.00;78.09
58018;BME280;43810;50.860;19.226;2023-02-08T08:44:25;101340.72;;;-0.06;77.99
58018;BME280;43810;50.860;19.226;2023-02-08T08:46:55;101341.00;;;0.05;77.34
58018;BME280;43810;50.860;19.226;2023-02-08T08:49:22;101354.63;;;0.01;77.83
58018;BME280;43810;50.860;19.226;2023-02-08T08:51:48;101347.28;;;-0.17;78.32
58018;BME280;43810;50.860;19.226;2023-02-08T08:54:14;101361.06;;;-0.30;77.93
58018;BME280;43810;50.860;19.226;2023-02-08T08:56:40;101365.66;;;-0.32;78.13
58018;BME280;43810;50.860;19.226;2023-02-08T08:59:05;101366.91;;;-0.28;77.76
58018;BME280;43810;50.860;19.226;2023-02-08T09:01:31;101367.00;;;-0.36;78.22
58018;BME280;43810;50.860;19.226;2023-02-08T09:03:57;101367.53;;;-0.47;78.22
58018;BME280;43810;50.860;19.226;2023-02-08T09:06:23;101361.81;;;-0.57;78.93
58018;BME280;43810;50.860;19.226;2023-02-08T09:08:48;101367.81;;;-0.35;78.83
58018;BME280;43810;50.860;19.226;2023-02-08T09:11:15;101363.91;;;0.03;77.73
58018;BME280;43810;50.860;19.226;2023-02-08T09:13:41;101370.31;;;0.01;76.76
58018;BME280;43810;50.860;19.226;2023-02-08T09:16:09;101367.13;;;0.05;76.60
58018;BME280;43810;50.860;19.226;2023-02-08T09:18:37;101370.84;;;-0.11;75.39
58018;BME280;43810;50.860;19.226;2023-02-08T09:21:07;101375.50;;;-0.06;76.01
58018;BME280;43810;50.860;19.226;2023-02-08T09:23:33;101385.31;;;0.20;75.90
58018;BME280;43810;50.860;19.226;2023-02-08T09:26:08;101370.84;;;0.17;75.40
58018;BME280;43810;50.860;19.226;2023-02-08T09:28:34;101368.69;;;-0.00;74.75
58018;BME280;43810;50.860;19.226;2023-02-08T09:31:27;101371.59;;;0.11;75.11
58018;BME280;43810;50.860;19.226;2023-02-08T09:33:54;101372.78;;;0.43;73.68
58018;BME280;43810;50.860;19.226;2023-02-08T09:36:22;101371.84;;;0.51;72.96
58018;BME280;43810;50.860;19.226;2023-02-08T09:38:49;101365.34;;;0.40;72.86
58018;BME280;43810;50.860;19.226;2023-02-08T09:46:27;101360.25;;;0.80;69.96
58018;BME280;43810;50.860;19.226;2023-02-08T09:48:57;101367.22;;;0.53;70.08
58018;BME280;43810;50.860;19.226;2023-02-08T09:54:00;101364.09;;;0.36;70.74
58018;BME280;43810;50.860;19.226;2023-02-08T09:56:35;101356.38;;;0.21;71.20
58018;BME280;43810;50.860;19.226;2023-02-08T09:59:07;101358.50;;;0.39;71.60
58018;BME280;43810;50.860;19.226;2023-02-08T10:01:37;101353.03;;;0.75;70.06
58018;BME280;43810;50.860;19.226;2023-02-08T10:06:47;101365.72;;;0.85;68.43
58018;BME280;43810;50.860;19.226;2023-02-08T10:09:14;101361.44;;;0.71;69.02
58018;BME280;43810;50.860;19.226;2023-02-08T10:11:52;101372.28;;;0.68;69.76
58018;BME280;43810;50.860;19.226;2023-02-08T10:20:07;101357.97;;;1.11;67.91
58018;BME280;43810;50.860;19.226;2023-02-08T10:22:41;101363.03;;;1.39;67.10
58018;BME280;43810;50.860;19.226;2023-02-08T10:28:53;101361.66;;;1.63;66.01
58018;BME280;43810;50.860;19.226;2023-02-08T10:36:51;101356.81;;;1.66;65.46
58018;BME280;43810;50.860;19.226;2023-02-08T10:39:31;101358.97;;;1.23;67.13
58018;BME280;43810;50.860;19.226;2023-02-08T10:41:58;101359.09;;;0.89;68.78
58018;BME280;43810;50.860;19.226;2023-02-08T10:50:11;101349.06;;;1.06;68.19
58018;BME280;43810;50.860;19.226;2023-02-08T10:52:40;101355.78;;;1.21;68.67
58018;BME280;43810;50.860;19.226;2023-02-08T10:55:12;101361.63;;;1.50;67.96
58018;BME280;43810;50.860;19.226;2023-02-08T10:57:39;101361.22;;;1.59;67.18
58018;BME280;43810;50.860;19.226;2023-02-08T11:00:36;101359.44;;;1.86;65.73
58018;BME280;43810;50.860;19.226;2023-02-08T11:03:27;101349.31;;;1.96;64.89
58018;BME280;43810;50.860;19.226;2023-02-08T11:05:54;101351.78;;;1.91;62.46
58018;BME280;43810;50.860;19.226;2023-02-08T11:08:22;101348.13;;;1.59;61.53
58018;BME280;43810;50.860;19.226;2023-02-08T11:13:30;101349.31;;;1.17;63.17
58018;BME280;43810;50.860;19.226;2023-02-08T11:15:58;101342.25;;;1.24;64.10
58018;BME280;43810;50.860;19.226;2023-02-08T11:21:09;101335.19;;;1.12;62.19
58018;BME280;43810;50.860;19.226;2023-02-08T11:23:49;101345.88;;;1.23;62.65
58018;BME280;43810;50.860;19.226;2023-02-08T11:28:44;101340.63;;;1.17;64.15
58018;BME280;43810;50.860;19.226;2023-02-08T11:31:25;101337.00;;;1.05;64.88
58018;BME280;43810;50.860;19.226;2023-02-08T11:34:02;101333.94;;;0.94;65.51
58018;BME280;43810;50.860;19.226;2023-02-08T11:36:30;101327.13;;;1.13;64.34
58018;BME280;43810;50.860;19.226;2023-02-08T11:38:56;101338.41;;;1.07;65.33
58018;BME280;43810;50.860;19.226;2023-02-08T11:41:25;101335.00;;;1.13;65.14
58018;BME280;43810;50.860;19.226;2023-02-08T11:43:57;101332.97;;;1.15;66.15
58018;BME280;43810;50.860;19.226;2023-02-08T11:46:25;101328.13;;;1.06;65.19
58018;BME280;43810;50.860;19.226;2023-02-08T11:48:52;101336.16;;;0.91;66.25
58018;BME280;43810;50.860;19.226;2023-02-08T11:53:53;101328.56;;;1.16;65.98
58018;BME280;43810;50.860;19.226;2023-02-08T11:56:23;101326.53;;;1.05;66.91
58018;BME280;43810;50.860;19.226;2023-02-08T11:59:00;101330.34;;;0.95;67.23
58018;BME280;43810;50.860;19.226;2023-02-08T12:01:38;101322.66;;;0.94;66.85
58018;BME280;43810;50.860;19.226;2023-02-08T12:04:07;101331.13;;;0.96;67.07
58018;BME280;43810;50.860;19.226;2023-02-08T12:06:41;101328.53;;;1.03;67.42
58018;BME280;43810;50.860;19.226;2023-02-08T12:22:25;101305.22;;;1.80;64.05
58018;BME280;43810;50.860;19.226;2023-02-08T12:28:09;101302.41;;;1.68;64.01
58018;BME280;43810;50.860;19.226;2023-02-08T12:36:20;101285.75;;;2.21;61.04
58018;BME280;43810;50.860;19.226;2023-02-08T12:54:02;101277.00;;;1.36;58.82
58018;BME280;43810;50.860;19.226;2023-02-08T12:56:35;101272.97;;;1.14;58.49
58018;BME280;43810;50.860;19.226;2023-02-08T12:59:04;101268.09;;;0.91;58.70
58018;BME280;43810;50.860;19.226;2023-02-08T13:01:34;101266.47;;;0.77;60.00
58018;BME280;43810;50.860;19.226;2023-02-08T13:04:10;101268.69;;;0.73;60.07
58018;BME280;43810;50.860;19.226;2023-02-08T13:06:44;101272.44;;;0.51;60.96
58018;BME280;43810;50.860;19.226;2023-02-08T13:09:19;101267.06;;;0.79;59.79
58018;BME280;43810;50.860;19.226;2023-02-08T13:11:53;101263.44;;;0.80;59.96
58018;BME280;43810;50.860;19.226;2023-02-08T13:14:32;101259.63;;;0.76;59.30
58018;BME280;43810;50.860;19.226;2023-02-08T13:17:16;101269.09;;;0.77;59.11
58018;BME280;43810;50.860;19.226;2023-02-08T13:22:12;101252.59;;;0.89;59.60
58018;BME280;43810;50.860;19.226;2023-02-08T13:24:42;101259.06;;;1.20;59.08
58018;BME280;43810;50.860;19.226;2023-02-08T13:27:16;101252.16;;;1.71;57.53
58018;BME280;43810;50.860;19.226;2023-02-08T13:29:44;101246.28;;;2.02;56.38
58018;BME280;43810;50.860;19.226;2023-02-08T13:32:29;101246.16;;;2.29;55.16
58018;BME280;43810;50.860;19.226;2023-02-08T13:37:38;101250.59;;;2.28;54.79
58018;BME280;43810;50.860;19.226;2023-02-08T13:45:02;101245.25;;;1.97;55.74
58018;BME280;43810;50.860;19.226;2023-02-08T13:47:42;101239.09;;;1.65;57.41
58018;BME280;43810;50.860;19.226;2023-02-08T13:56:04;101227.19;;;1.62;58.22
58018;BME280;43810;50.860;19.226;2023-02-08T14:01:19;101224.16;;;1.72;59.01
58018;BME280;43810;50.860;19.226;2023-02-08T14:06:48;101228.88;;;2.08;57.89
58018;BME280;43810;50.860;19.226;2023-02-08T14:09:36;101225.59;;;2.26;57.66
58018;BME280;43810;50.860;19.226;2023-02-08T14:12:19;101225.97;;;2.36;57.28
58018;BME280;43810;50.860;19.226;2023-02-08T14:15:04;101222.34;;;1.72;58.56
58018;BME280;43810;50.860;19.226;2023-02-08T14:17:30;101236.28;;;1.60;58.95
58018;BME280;43810;50.860;19.226;2023-02-08T14:20:02;101236.09;;;1.55;58.71
58018;BME280;43810;50.860;19.226;2023-02-08T14:22:39;101218.56;;;1.49;59.22
58018;BME280;43810;50.860;19.226;2023-02-08T14:28:06;101223.72;;;1.82;58.97
58018;BME280;43810;50.860;19.226;2023-02-08T14:30:49;101219.09;;;1.90;58.65
58018;BME280;43810;50.860;19.226;2023-02-08T14:33:20;101225.75;;;1.86;58.23
58018;BME280;43810;50.860;19.226;2023-02-08T14:35:54;101214.50;;;1.59;58.88
58018;BME280;43810;50.860;19.226;2023-02-08T14:40:56;101219.78;;;1.53;59.06
58018;BME280;43810;50.860;19.226;2023-02-08T14:43:36;101222.22;;;1.34;59.48
58018;BME280;43810;50.860;19.226;2023-02-08T14:49:12;101220.09;;;0.44;62.22
58018;BME280;43810;50.860;19.226;2023-02-08T14:51:44;101217.03;;;0.34;62.72
58018;BME280;43810;50.860;19.226;2023-02-08T14:54:32;101219.78;;;0.13;63.11
58018;BME280;43810;50.860;19.226;2023-02-08T14:57:22;101212.75;;;0.13;63.46
58018;BME280;43810;50.860;19.226;2023-02-08T14:59:50;101219.38;;;0.09;63.21
58018;BME280;43810;50.860;19.226;2023-02-08T15:02:21;101212.63;;;-0.13;64.04
58018;BME280;43810;50.860;19.226;2023-02-08T15:04:50;101203.31;;;-0.29;64.68
58018;BME280;43810;50.860;19.226;2023-02-08T15:09:43;101200.34;;;-0.54;65.65
58018;BME280;43810;50.860;19.226;2023-02-08T15:12:31;101204.31;;;-0.64;65.67
58018;BME280;43810;50.860;19.226;2023-02-08T15:15:00;101209.97;;;-0.82;66.34
58018;BME280;43810;50.860;19.226;2023-02-08T15:17:39;101204.94;;;-0.84;67.18
58018;BME280;43810;50.860;19.226;2023-02-08T15:20:14;101198.84;;;-0.97;67.58
58018;BME280;43810;50.860;19.226;2023-02-08T15:22:41;101204.44;;;-1.00;67.48
58018;BME280;43810;50.860;19.226;2023-02-08T15:25:24;101189.47;;;-1.13;67.91
58018;BME280;43810;50.860;19.226;2023-02-08T15:27:54;101196.72;;;-1.30;68.53
58018;BME280;43810;50.860;19.226;2023-02-08T15:30:41;101204.63;;;-1.44;69.22
58018;BME280;43810;50.860;19.226;2023-02-08T15:33:15;101200.50;;;-1.53;69.61